Time;durP1;ratioP1;P1;durP2;ratioP2;P2;SDS_P1;SDS_P2;PMS_P1;PMS_P2;Temp;Humidity;BMP_temperature;BMP_pressure;BME280_temperature;BME280_humidity;BME280_pressure;Samples;Min_cycle;Max_cycle;Signal;HPM_P1;HPM_P2
2023/03/20 00:01:27;;;;;;;;;;;;;;;8.34;67.65;100147.63;5092343;28;20273;-40
2023/03/20 00:03:52;;;;;;;;;;;;;;;8.03;68.88;100145.88;5092080;28;19924;-41
2023/03/20 00:06:19;;;;;;;;;;;;;;;7.85;69.06;100135.59;5092281;28;19920;-41
2023/03/20 00:08:45;;;;;;;;;;;;;;;7.75;69.50;100130.53;5092076;28;20339;-41
2023/03/20 00:11:40;;;;;;;;;;;;;;;7.95;69.22;100136.16;5092188;28;19923;-40
2023/03/20 00:14:08;;;;;;;;;;;;;;;8.27;68.16;100128.16;5082679;28;20412;-40
2023/03/20 00:16:34;;;;;;;;;;;;;;;8.37;67.73;100123.41;5091313;28;19949;-41
2023/03/20 00:19:00;;;;;;;;;;;;;;;8.39;67.33;100113.44;5092184;28;19912;-40
2023/03/20 00:21:26;;;;;;;;;;;;;;;8.43;66.98;100120.06;5091991;28;19916;-41
2023/03/20 00:23:52;;;;;;;;;;;;;;;8.43;67.04;100112.09;5091854;28;19924;-40
2023/03/20 00:26:18;;;;;;;;;;;;;;;8.27;67.47;100107.75;5091867;28;19912;-41
2023/03/20 00:28:45;;;;;;;;;;;;;;;7.87;68.30;100116.88;5091630;28;20555;-41
2023/03/20 00:31:23;;;;;;;;;;;;;;;7.71;70.34;100108.03;5091182;28;19923;-41
2023/03/20 00:33:48;;;;;;;;;;;;;;;7.54;73.77;100106.47;5091947;28;19912;-41
2023/03/20 00:36:14;;;;;;;;;;;;;;;7.60;74.18;100111.91;5092018;28;19987;-41
2023/03/20 00:38:39;;;;;;;;;;;;;;;7.77;72.42;100111.81;5090273;28;19939;-40
2023/03/20 00:41:17;;;;;;;;;;;;;;;7.73;73.56;100108.69;5091456;28;19912;-40
2023/03/20 00:43:42;;;;;;;;;;;;;;;8.37;71.46;100108.31;5091360;28;19939;-42
2023/03/20 00:46:12;;;;;;;;;;;;;;;8.27;70.13;100104.28;5091248;28;19984;-39
2023/03/20 00:48:39;;;;;;;;;;;;;;;7.86;72.27;100105.44;5091749;28;19916;-41
2023/03/20 00:51:04;;;;;;;;;;;;;;;7.70;74.69;100105.56;5091721;28;20352;-40
2023/03/20 00:53:30;;;;;;;;;;;;;;;7.63;74.37;100100.97;5091313;28;19912;-41
2023/03/20 00:55:55;;;;;;;;;;;;;;;7.67;73.79;100098.75;5091425;28;19959;-41
2023/03/20 00:58:20;;;;;;;;;;;;;;;7.63;74.63;100100.13;5091457;28;20003;-40
2023/03/20 01:00:46;;;;;;;;;;;;;;;7.60;74.75;100095.19;5091201;28;19912;-41
2023/03/20 01:03:15;;;;;;;;;;;;;;;8.21;73.13;100095.22;5091195;28;19958;-41
2023/03/20 01:05:41;;;;;;;;;;;;;;;8.23;71.06;100091.38;5091275;28;19924;-41
2023/03/20 01:08:20;;;;;;;;;;;;;;;8.39;69.59;100094.88;5091475;28;19912;-40
2023/03/20 01:10:47;;;;;;;;;;;;;;;8.18;71.75;100091.09;5091268;28;19974;-40
2023/03/20 01:13:19;;;;;;;;;;;;;;;7.47;72.78;100069.28;5091138;28;19912;-40
2023/03/20 01:15:44;;;;;;;;;;;;;;;7.57;73.36;100101.66;5091271;28;20538;-40
2023/03/20 01:18:14;;;;;;;;;;;;;;;7.57;73.96;100090.22;5091245;28;19916;-40
2023/03/20 01:20:39;;;;;;;;;;;;;;;7.75;73.00;100084.63;5091151;28;19913;-40
2023/03/20 01:23:05;;;;;;;;;;;;;;;8.32;71.54;100088.66;5091108;28;19920;-41
2023/03/20 01:25:30;;;;;;;;;;;;;;;8.43;70.23;100088.25;5089611;28;20421;-40
2023/03/20 01:27:56;;;;;;;;;;;;;;;7.94;72.02;100086.84;5091500;28;19912;-40
2023/03/20 01:30:26;;;;;;;;;;;;;;;7.96;73.19;100082.19;5095413;28;19999;-41
2023/03/20 01:32:52;;;;;;;;;;;;;;;7.76;72.63;100079.16;5095249;28;19912;-40
2023/03/20 01:35:19;;;;;;;;;;;;;;;7.54;74.22;100077.31;5094916;28;19935;-41
2023/03/20 01:37:45;;;;;;;;;;;;;;;7.46;75.19;100075.56;5095106;28;19916;-41
2023/03/20 01:40:22;;;;;;;;;;;;;;;8.15;73.37;100078.22;5094621;28;19938;-41
2023/03/20 01:42:48;;;;;;;;;;;;;;;7.97;73.62;100075.03;5094912;28;20379;-41
2023/03/20 01:45:15;;;;;;;;;;;;;;;7.79;74.44;100078.00;5094765;28;19912;-41
2023/03/20 01:47:40;;;;;;;;;;;;;;;7.56;74.83;100075.34;5094977;28;19943;-41
2023/03/20 01:50:18;;;;;;;;;;;;;;;7.44;75.95;100070.47;5094866;28;20328;-41
2023/03/20 01:52:45;;;;;;;;;;;;;;;7.49;74.70;100072.56;5094887;28;19961;-41
2023/03/20 01:55:10;;;;;;;;;;;;;;;7.57;76.42;100071.69;5095108;28;19916;-40
2023/03/20 01:57:36;;;;;;;;;;;;;;;7.50;75.43;100071.59;5095491;28;19985;-41
2023/03/20 02:00:09;;;;;;;;;;;;;;;7.23;77.07;100073.72;5095128;28;20006;-41
2023/03/20 02:02:35;;;;;;;;;;;;;;;7.31;78.06;100072.84;5095131;28;19954;-41
2023/03/20 02:05:04;;;;;;;;;;;;;;;8.00;76.00;100072.88;5095227;28;20446;-41
2023/03/20 02:07:31;;;;;;;;;;;;;;;7.77;74.69;100066.75;5095170;28;19996;-40
2023/03/20 02:09:56;;;;;;;;;;;;;;;7.61;74.83;100070.34;5094955;28;19912;-41
2023/03/20 02:12:22;;;;;;;;;;;;;;;7.72;73.93;100064.63;5095028;28;20052;-41
2023/03/20 02:14:47;;;;;;;;;;;;;;;7.60;73.76;100068.72;5094860;28;20002;-40
2023/03/20 02:17:13;;;;;;;;;;;;;;;7.41;74.64;100070.81;5094946;28;20004;-40
2023/03/20 02:19:48;;;;;;;;;;;;;;;7.03;75.87;100068.03;5094811;28;19920;-41
2023/03/20 02:22:28;;;;;;;;;;;;;;;6.88;76.67;100071.56;5094903;28;19916;-41
2023/03/20 02:24:54;;;;;;;;;;;;;;;6.93;76.39;100066.56;5094573;28;19969;-41
2023/03/20 02:27:22;;;;;;;;;;;;;;;7.10;75.91;100065.53;5094657;28;20074;-41
2023/03/20 02:29:50;;;;;;;;;;;;;;;7.13;76.15;100065.16;5094594;28;20014;-41
2023/03/20 02:32:27;;;;;;;;;;;;;;;7.50;76.40;100062.78;5094358;28;19912;-41
2023/03/20 02:35:04;;;;;;;;;;;;;;;7.68;75.80;100066.00;5094840;28;19964;-41
2023/03/20 02:37:46;;;;;;;;;;;;;;;7.36;74.46;100065.19;5094324;28;19980;-40
2023/03/20 02:40:21;;;;;;;;;;;;;;;7.23;75.85;100055.19;5093757;28;20474;-41
2023/03/20 02:42:50;;;;;;;;;;;;;;;6.98;76.26;100057.13;5092811;28;20315;-40
2023/03/20 02:45:19;;;;;;;;;;;;;;;6.90;75.73;100051.88;5094313;28;19912;-41
2023/03/20 02:48:04;;;;;;;;;;;;;;;6.99;76.02;100050.03;5093835;28;19912;-40
2023/03/20 02:50:43;;;;;;;;;;;;;;;6.84;75.61;100052.56;5086140;28;19916;-41
2023/03/20 02:53:14;;;;;;;;;;;;;;;6.48;77.60;100053.00;5094330;28;20292;-41
2023/03/20 02:55:47;;;;;;;;;;;;;;;6.41;77.85;100052.84;5094162;28;20000;-41
2023/03/20 02:58:21;;;;;;;;;;;;;;;6.28;80.85;100054.34;5094418;28;20283;-40
2023/03/20 03:00:51;;;;;;;;;;;;;;;6.09;78.89;100059.00;5094058;28;19912;-41
2023/03/20 03:03:19;;;;;;;;;;;;;;;6.28;79.07;100047.25;5094225;28;20010;-40
2023/03/20 03:05:57;;;;;;;;;;;;;;;6.38;77.60;100047.91;5093743;28;19912;-40
2023/03/20 03:08:25;;;;;;;;;;;;;;;6.41;76.33;100049.38;5093622;28;19912;-40
2023/03/20 03:10:54;;;;;;;;;;;;;;;6.34;77.65;100048.41;5093007;28;19919;-40
2023/03/20 03:13:22;;;;;;;;;;;;;;;5.94;77.39;100016.56;5093471;28;19962;-41
2023/03/20 03:15:50;;;;;;;;;;;;;;;6.23;77.21;100044.31;5093275;28;19916;-41
2023/03/20 03:18:20;;;;;;;;;;;;;;;6.05;76.42;100045.31;5093828;28;20448;-40
2023/03/20 03:20:47;;;;;;;;;;;;;;;6.19;77.17;100043.81;5093832;28;19935;-41
2023/03/20 03:23:27;;;;;;;;;;;;;;;6.06;77.18;100044.31;5093613;28;19927;-40
2023/03/20 03:25:54;;;;;;;;;;;;;;;6.12;76.11;100050.75;5093720;28;19916;-40
2023/03/20 03:28:28;;;;;;;;;;;;;;;5.86;77.31;100046.47;5093590;28;20018;-41
2023/03/20 03:30:54;;;;;;;;;;;;;;;5.60;76.95;100024.66;5093841;28;19912;-40
2023/03/20 03:33:22;;;;;;;;;;;;;;;5.81;77.20;100047.94;5093502;28;19969;-40
2023/03/20 03:35:48;;;;;;;;;;;;;;;5.91;75.82;100048.59;5093319;28;19916;-40
2023/03/20 03:38:25;;;;;;;;;;;;;;;5.94;75.20;100042.13;5093478;28;19961;-40
2023/03/20 03:41:05;;;;;;;;;;;;;;;5.83;78.00;100048.59;5093504;28;19920;-39
2023/03/20 03:43:38;;;;;;;;;;;;;;;5.59;79.65;100050.22;5093272;28;19963;-40
2023/03/20 03:46:07;;;;;;;;;;;;;;;5.56;78.37;100052.34;5093536;28;19918;-41
2023/03/20 03:48:45;;;;;;;;;;;;;;;5.56;78.29;100049.72;5092996;28;20015;-41
2023/03/20 03:51:13;;;;;;;;;;;;;;;5.63;77.88;100053.34;5092343;28;19916;-40
2023/03/20 03:53:47;;;;;;;;;;;;;;;5.67;76.86;100052.03;5092972;28;19912;-40
2023/03/20 03:56:15;;;;;;;;;;;;;;;5.41;78.27;100053.00;5092779;28;19912;-40
2023/03/20 03:58:42;;;;;;;;;;;;;;;5.46;78.89;100056.00;5093180;28;19965;-39
2023/03/20 04:01:11;;;;;;;;;;;;;;;5.39;78.67;100055.00;5093084;28;19934;-40
2023/03/20 04:03:39;;;;;;;;;;;;;;;5.26;79.58;100055.44;5092756;28;19955;-41
2023/03/20 04:06:05;;;;;;;;;;;;;;;5.30;78.58;100050.69;5092901;28;20384;-40
2023/03/20 04:08:30;;;;;;;;;;;;;;;5.20;78.63;100057.91;5092864;28;20010;-39
2023/03/20 04:10:56;;;;;;;;;;;;;;;5.40;77.91;100058.44;5093265;28;19947;-40
2023/03/20 04:13:21;;;;;;;;;;;;;;;5.60;76.31;100059.81;5092759;28;19966;-41
2023/03/20 04:15:46;;;;;;;;;;;;;;;5.78;75.41;100059.63;5092661;28;19912;-41
2023/03/20 04:18:15;;;;;;;;;;;;;;;5.75;75.08;100056.50;5100001;28;20376;-40
2023/03/20 04:20:41;;;;;;;;;;;;;;;5.54;74.66;100057.81;5091666;28;19916;-40
2023/03/20 04:23:07;;;;;;;;;;;;;;;5.67;74.08;100049.41;5092651;28;20049;-41
2023/03/20 04:25:32;;;;;;;;;;;;;;;5.70;74.32;100059.66;5092716;28;20398;-40
2023/03/20 04:27:58;;;;;;;;;;;;;;;5.46;75.76;100057.78;5092084;28;19923;-41
2023/03/20 04:30:23;;;;;;;;;;;;;;;5.20;76.60;100058.75;5095230;28;20372;-40
2023/03/20 04:32:49;;;;;;;;;;;;;;;5.20;76.47;100053.47;5112568;28;19958;-40
2023/03/20 04:35:14;;;;;;;;;;;;;;;5.02;76.76;100056.19;5102476;28;19962;-41
2023/03/20 04:37:39;;;;;;;;;;;;;;;5.04;77.15;100051.56;5092685;28;19916;-41
2023/03/20 04:40:05;;;;;;;;;;;;;;;5.17;75.98;100048.50;5092050;28;20357;-41
2023/03/20 04:42:30;;;;;;;;;;;;;;;5.18;75.69;100055.44;5090782;28;19916;-40
2023/03/20 04:44:55;;;;;;;;;;;;;;;5.33;75.95;100058.28;5092216;28;20010;-41
2023/03/20 04:47:21;;;;;;;;;;;;;;;5.34;75.46;100051.19;5092108;28;19913;-40
2023/03/20 04:49:46;;;;;;;;;;;;;;;5.91;74.05;100061.81;5091920;28;19922;-40
2023/03/20 04:52:11;;;;;;;;;;;;;;;5.81;74.61;100061.97;5092161;28;20004;-41
2023/03/20 04:54:37;;;;;;;;;;;;;;;6.42;74.65;100058.97;5092008;28;19912;-40
2023/03/20 04:57:02;;;;;;;;;;;;;;;7.18;69.83;100054.06;5092118;28;20065;-41
2023/03/20 04:59:27;;;;;;;;;;;;;;;7.85;66.78;100061.41;5091473;28;19912;-41
2023/03/20 05:01:52;;;;;;;;;;;;;;;8.29;64.46;100063.31;5091068;28;20383;-40
2023/03/20 05:04:18;;;;;;;;;;;;;;;8.56;65.64;100064.56;5091748;28;19916;-41
2023/03/20 05:06:47;;;;;;;;;;;;;;;9.18;62.17;100070.47;5091194;28;20371;-40
2023/03/20 05:09:12;;;;;;;;;;;;;;;9.65;59.72;100066.47;5090971;28;19922;-40
2023/03/20 05:11:37;;;;;;;;;;;;;;;10.07;57.73;100062.16;5091812;28;19912;-40
2023/03/20 05:14:03;;;;;;;;;;;;;;;10.37;56.30;100069.97;5091250;28;20368;-41
2023/03/20 05:16:29;;;;;;;;;;;;;;;10.57;56.17;100067.47;5091863;28;19919;-41
2023/03/20 05:18:54;;;;;;;;;;;;;;;10.49;56.13;100055.13;5091489;28;19912;-41
2023/03/20 05:21:20;;;;;;;;;;;;;;;10.75;55.21;100064.28;5091254;28;20022;-41
2023/03/20 05:23:45;;;;;;;;;;;;;;;10.99;60.33;100068.28;5090965;28;20297;-41
2023/03/20 05:26:12;;;;;;;;;;;;;;;10.96;58.30;100074.81;5090222;28;20133;-41
2023/03/20 05:28:38;;;;;;;;;;;;;;;11.64;53.70;100073.22;5090722;28;20319;-41
2023/03/20 05:31:03;;;;;;;;;;;;;;;12.01;52.10;100065.69;5089936;28;20299;-40
2023/03/20 05:33:28;;;;;;;;;;;;;;;12.30;50.33;100067.13;5090679;28;20383;-41
2023/03/20 05:35:54;;;;;;;;;;;;;;;12.46;49.86;100069.34;5089994;28;19912;-40
2023/03/20 05:38:21;;;;;;;;;;;;;;;12.59;49.08;100067.69;5091062;28;20348;-44
2023/03/20 05:40:47;;;;;;;;;;;;;;;12.83;48.77;100068.84;5090726;28;20315;-41
2023/03/20 05:43:12;;;;;;;;;;;;;;;13.22;48.05;100064.41;5090512;28;20445;-41
2023/03/20 05:45:38;;;;;;;;;;;;;;;12.84;47.99;100070.50;5090697;28;19916;-41
2023/03/20 05:48:03;;;;;;;;;;;;;;;13.42;47.51;100067.84;5090825;28;19912;-42
2023/03/20 05:50:28;;;;;;;;;;;;;;;13.83;46.48;100071.06;5090806;28;19912;-42
2023/03/20 05:52:54;;;;;;;;;;;;;;;14.33;45.89;100071.06;5091102;28;19912;-42
2023/03/20 05:55:19;;;;;;;;;;;;;;;14.88;44.91;100066.84;5090438;28;19931;-42
2023/03/20 05:57:45;;;;;;;;;;;;;;;14.93;44.08;100064.31;5090699;28;20064;-42
2023/03/20 06:00:10;;;;;;;;;;;;;;;14.99;44.17;100066.09;5090676;28;19920;-42
2023/03/20 06:02:36;;;;;;;;;;;;;;;15.36;43.85;100066.03;5090882;28;19927;-42
2023/03/20 06:05:01;;;;;;;;;;;;;;;15.75;42.54;100066.53;5090740;28;20307;-42
2023/03/20 06:07:27;;;;;;;;;;;;;;;15.97;41.35;100067.66;5090862;28;19954;-42
2023/03/20 06:09:52;;;;;;;;;;;;;;;15.81;41.18;100060.25;5090861;28;19912;-43
2023/03/20 06:12:17;;;;;;;;;;;;;;;15.94;41.78;100062.72;5090850;28;20483;-42
2023/03/20 06:14:42;;;;;;;;;;;;;;;16.34;42.10;100066.63;5092059;28;19913;-42
2023/03/20 06:17:08;;;;;;;;;;;;;;;16.29;40.47;100067.31;5094690;28;19961;-43
2023/03/20 06:19:33;;;;;;;;;;;;;;;16.37;41.63;100064.28;5094096;28;19995;-43
2023/03/20 06:21:58;;;;;;;;;;;;;;;16.72;40.56;100065.31;5094831;28;20388;-42
2023/03/20 06:24:24;;;;;;;;;;;;;;;17.01;39.29;100068.91;5094411;28;19924;-43
2023/03/20 06:26:49;;;;;;;;;;;;;;;16.72;39.83;100068.81;5094638;28;19916;-42
2023/03/20 06:29:14;;;;;;;;;;;;;;;17.17;39.30;100061.94;5094273;28;19923;-43
2023/03/20 06:31:40;;;;;;;;;;;;;;;17.68;38.74;100062.06;5094203;28;19995;-41
2023/03/20 06:34:05;;;;;;;;;;;;;;;18.42;37.52;100061.13;5094012;28;19912;-42
2023/03/20 06:36:31;;;;;;;;;;;;;;;19.03;36.21;100061.16;5094123;28;19912;-42
2023/03/20 06:38:56;;;;;;;;;;;;;;;19.39;35.33;100059.66;5094269;28;19919;-43
2023/03/20 06:41:21;;;;;;;;;;;;;;;17.89;37.07;100064.06;5094242;28;19928;-43
2023/03/20 06:43:47;;;;;;;;;;;;;;;18.73;35.79;100062.34;5093951;28;19938;-43
2023/03/20 06:46:13;;;;;;;;;;;;;;;19.17;35.32;100062.38;5093920;28;19912;-42
2023/03/20 06:48:38;;;;;;;;;;;;;;;18.92;35.95;100062.91;5094073;28;19919;-43
2023/03/20 06:51:03;;;;;;;;;;;;;;;19.75;35.17;100051.94;5093996;28;20002;-42
2023/03/20 06:53:28;;;;;;;;;;;;;;;20.13;34.17;100058.19;5093909;28;20006;-42
2023/03/20 06:55:54;;;;;;;;;;;;;;;20.38;33.88;100054.84;5094025;28;20323;-42
2023/03/20 06:58:19;;;;;;;;;;;;;;;21.05;33.08;100056.00;5093482;28;19994;-42
2023/03/20 07:00:45;;;;;;;;;;;;;;;21.37;32.30;100055.00;5093492;28;19912;-42
2023/03/20 07:03:11;;;;;;;;;;;;;;;21.96;31.71;100050.22;5093587;28;20391;-42
2023/03/20 07:05:37;;;;;;;;;;;;;;;22.55;30.90;100049.63;5093774;28;20397;-42
2023/03/20 07:08:02;;;;;;;;;;;;;;;22.60;30.53;100055.03;5093658;28;19916;-42
2023/03/20 07:10:27;;;;;;;;;;;;;;;22.08;30.82;100053.47;5093647;28;19988;-43
2023/03/20 07:12:53;;;;;;;;;;;;;;;21.70;31.15;100050.22;5093539;28;20303;-42
2023/03/20 07:15:19;;;;;;;;;;;;;;;21.84;30.90;100047.78;5093609;28;19919;-41
2023/03/20 07:17:46;;;;;;;;;;;;;;;21.75;31.05;100046.69;5093009;28;20444;-42
2023/03/20 07:20:11;;;;;;;;;;;;;;;21.63;31.34;100055.09;5093593;28;20311;-41
2023/03/20 07:22:37;;;;;;;;;;;;;;;21.85;31.58;100052.13;5092954;28;20375;-42
2023/03/20 07:25:02;;;;;;;;;;;;;;;22.04;31.30;100052.38;5092975;28;20319;-43
2023/03/20 07:27:28;;;;;;;;;;;;;;;22.53;30.55;100051.78;5092691;28;20260;-41
2023/03/20 07:29:53;;;;;;;;;;;;;;;22.72;30.40;100045.78;5092960;28;20382;-42
2023/03/20 07:32:19;;;;;;;;;;;;;;;22.78;29.62;100050.88;5092773;28;20395;-43
2023/03/20 07:34:46;;;;;;;;;;;;;;;22.41;30.05;100045.88;5093019;28;19915;-42
2023/03/20 07:37:11;;;;;;;;;;;;;;;21.62;31.40;100034.50;5092518;28;20453;-42
2023/03/20 07:39:36;;;;;;;;;;;;;;;21.66;32.13;100030.97;5092627;28;19916;-42
2023/03/20 07:42:02;;;;;;;;;;;;;;;21.62;32.26;100029.09;5092588;28;19922;-43
2023/03/20 07:44:27;;;;;;;;;;;;;;;21.50;32.45;100025.84;5092385;28;19919;-41
2023/03/20 07:46:52;;;;;;;;;;;;;;;21.64;32.46;100026.91;5092390;28;19923;-41
2023/03/20 07:49:18;;;;;;;;;;;;;;;21.85;32.39;100033.16;5092324;28;20395;-41
2023/03/20 07:51:44;;;;;;;;;;;;;;;22.34;30.76;100034.50;5092350;28;19935;-40
2023/03/20 07:54:09;;;;;;;;;;;;;;;22.49;31.20;100037.16;5092291;28;19912;-41
2023/03/20 07:56:34;;;;;;;;;;;;;;;22.43;31.09;100046.41;5091856;28;20003;-40
2023/03/20 07:59:00;;;;;;;;;;;;;;;22.30;31.40;100033.41;5092181;28;20233;-39
2023/03/20 08:01:25;;;;;;;;;;;;;;;22.55;30.70;100032.53;5092231;28;19912;-41
2023/03/20 08:03:50;;;;;;;;;;;;;;;22.60;30.90;100030.63;5092086;28;19926;-41
2023/03/20 08:06:15;;;;;;;;;;;;;;;22.60;30.84;100030.63;5092200;28;20012;-41
2023/03/20 08:08:41;;;;;;;;;;;;;;;21.60;32.23;100032.06;5091963;28;20003;-41
2023/03/20 08:11:06;;;;;;;;;;;;;;;21.69;32.52;100023.41;5091755;28;19912;-41
2023/03/20 08:13:31;;;;;;;;;;;;;;;22.08;31.83;100028.25;5092026;28;19970;-41
2023/03/20 08:15:57;;;;;;;;;;;;;;;21.62;31.89;100019.06;5091672;28;19912;-40
2023/03/20 08:18:22;;;;;;;;;;;;;;;22.27;31.03;100023.13;5091577;28;19923;-42
2023/03/20 08:20:49;;;;;;;;;;;;;;;22.15;30.64;100017.97;5091788;28;19933;-42
2023/03/20 08:23:14;;;;;;;;;;;;;;;21.64;31.20;100022.31;5091933;28;19927;-42
2023/03/20 08:25:40;;;;;;;;;;;;;;;22.48;30.32;100024.69;5091850;28;20003;-42
2023/03/20 08:28:05;;;;;;;;;;;;;;;22.97;29.45;100015.00;5092028;28;20344;-42
2023/03/20 08:30:31;;;;;;;;;;;;;;;22.83;30.21;100020.22;5091735;28;19919;-41
2023/03/20 08:32:57;;;;;;;;;;;;;;;23.65;28.89;100018.97;5091515;28;19939;-40
2023/03/20 08:35:23;;;;;;;;;;;;;;;24.00;28.84;100017.84;5091687;28;19923;-42
2023/03/20 08:37:48;;;;;;;;;;;;;;;23.66;29.05;100004.25;5090604;28;19912;-40
2023/03/20 08:40:14;;;;;;;;;;;;;;;23.37;29.37;100022.13;5091353;28;19912;-41
2023/03/20 08:42:39;;;;;;;;;;;;;;;22.61;30.11;100015.16;5091705;28;20439;-40
2023/03/20 08:45:05;;;;;;;;;;;;;;;22.39;29.87;100020.91;5090062;28;19990;-41
2023/03/20 08:47:30;;;;;;;;;;;;;;;22.86;29.71;100014.22;5091314;28;19920;-41
2023/03/20 08:49:55;;;;;;;;;;;;;;;23.12;29.30;100004.09;5091334;28;19913;-41
2023/03/20 08:52:21;;;;;;;;;;;;;;;22.58;29.57;100018.41;5091966;28;20363;-42
2023/03/20 08:54:46;;;;;;;;;;;;;;;22.21;29.73;99995.97;5091266;28;20299;-40
2023/03/20 08:57:11;;;;;;;;;;;;;;;22.47;29.65;100006.81;5090916;28;19927;-40
2023/03/20 08:59:37;;;;;;;;;;;;;;;22.27;29.33;99996.81;5091183;28;19919;-41
2023/03/20 09:02:02;;;;;;;;;;;;;;;21.05;31.29;99993.78;5090802;28;20318;-41
2023/03/20 09:04:28;;;;;;;;;;;;;;;21.84;30.95;99991.72;5091021;28;19916;-42
2023/03/20 09:06:53;;;;;;;;;;;;;;;22.35;29.72;99987.31;5091265;28;20447;-41
2023/03/20 09:09:20;;;;;;;;;;;;;;;22.49;30.29;99987.56;5090969;28;19912;-40
2023/03/20 09:11:45;;;;;;;;;;;;;;;23.30;29.29;99980.88;5091485;28;19935;-41
2023/03/20 09:14:11;;;;;;;;;;;;;;;22.70;29.93;99980.94;5091189;28;20331;-41
2023/03/20 09:16:36;;;;;;;;;;;;;;;22.77;30.11;99981.47;5091028;28;19912;-41
2023/03/20 09:19:02;;;;;;;;;;;;;;;23.16;29.91;99974.50;5090816;28;20347;-41
2023/03/20 09:21:27;;;;;;;;;;;;;;;23.62;29.12;99982.28;5090551;28;19920;-41
2023/03/20 09:23:52;;;;;;;;;;;;;;;23.52;29.36;99974.22;5090628;28;20023;-41
2023/03/20 09:26:17;;;;;;;;;;;;;;;23.60;29.21;99973.63;5090706;28;19919;-41
2023/03/20 09:28:43;;;;;;;;;;;;;;;23.30;29.88;99975.47;5090573;28;19920;-41
2023/03/20 09:31:08;;;;;;;;;;;;;;;22.84;29.78;99978.44;5090535;28;19999;-39
2023/03/20 09:33:33;;;;;;;;;;;;;;;23.35;29.60;99972.72;5090632;28;19912;-44
2023/03/20 09:35:59;;;;;;;;;;;;;;;23.54;29.39;99961.19;5090596;28;19912;-42
2023/03/20 09:38:24;;;;;;;;;;;;;;;22.84;30.02;99962.16;5090820;28;19912;-41
2023/03/20 09:40:51;;;;;;;;;;;;;;;23.49;29.95;99962.00;5090679;28;19912;-42
2023/03/20 09:43:16;;;;;;;;;;;;;;;23.78;29.42;99956.66;5090506;28;20019;-41
2023/03/20 09:46:00;;;;;;;;;;;;;;;22.64;30.59;99952.25;5090817;28;19955;-40
2023/03/20 09:48:28;;;;;;;;;;;;;;;23.13;29.61;99947.91;5090600;28;20003;-42
2023/03/20 09:51:03;;;;;;;;;;;;;;;22.93;29.64;99935.25;5093954;28;19913;-42
2023/03/20 09:53:40;;;;;;;;;;;;;;;23.23;29.20;99939.69;5094722;28;19912;-40
2023/03/20 09:56:13;;;;;;;;;;;;;;;22.88;30.43;99936.09;5094411;28;19912;-42
2023/03/20 09:58:38;;;;;;;;;;;;;;;21.65;31.44;99942.72;5094093;28;19912;-40
2023/03/20 10:01:05;;;;;;;;;;;;;;;21.82;31.34;99931.59;5094167;28;19912;-40
2023/03/20 10:03:46;;;;;;;;;;;;;;;22.23;31.21;99936.09;5094502;28;20014;-40
2023/03/20 10:06:12;;;;;;;;;;;;;;;22.44;30.86;99934.13;5094197;28;19981;-41
2023/03/20 10:08:37;;;;;;;;;;;;;;;21.83;31.98;99930.50;5094205;28;19975;-42
2023/03/20 10:11:09;;;;;;;;;;;;;;;22.53;31.34;99929.75;5093927;28;20379;-41
2023/03/20 10:13:43;;;;;;;;;;;;;;;22.69;30.62;99916.13;5094586;28;19915;-40
2023/03/20 10:16:15;;;;;;;;;;;;;;;23.37;29.68;99916.22;5093814;28;19912;-42
2023/03/20 10:18:45;;;;;;;;;;;;;;;22.88;30.91;99905.44;5093895;28;20324;-40
2023/03/20 10:21:17;;;;;;;;;;;;;;;22.21;31.35;99908.44;5093712;28;20124;-40
2023/03/20 10:23:51;;;;;;;;;;;;;;;23.28;30.34;99901.63;5093575;28;19996;-40
2023/03/20 10:26:18;;;;;;;;;;;;;;;22.99;30.27;99890.72;5093915;28;20004;-40
2023/03/20 10:28:59;;;;;;;;;;;;;;;23.64;28.93;99898.59;5093828;28;19992;-43
2023/03/20 10:31:43;;;;;;;;;;;;;;;23.18;29.81;99897.09;5093951;28;19969;-42
2023/03/20 10:34:29;;;;;;;;;;;;;;;22.35;30.57;99895.13;5093181;28;19912;-42
2023/03/20 10:36:55;;;;;;;;;;;;;;;22.27;30.80;99890.31;5093520;28;20413;-42
2023/03/20 10:39:36;;;;;;;;;;;;;;;22.25;30.09;99885.97;5093721;28;19912;-42
2023/03/20 10:42:02;;;;;;;;;;;;;;;22.05;29.97;99881.41;5093893;28;19965;-42
2023/03/20 10:44:33;;;;;;;;;;;;;;;22.84;29.48;99865.28;5093502;28;19920;-42
2023/03/20 10:47:01;;;;;;;;;;;;;;;22.87;29.65;99861.22;5093161;28;19912;-46
2023/03/20 10:49:41;;;;;;;;;;;;;;;22.80;30.17;99852.59;5093808;28;20383;-47
2023/03/20 10:52:14;;;;;;;;;;;;;;;23.59;29.05;99855.22;5093454;28;19937;-47
2023/03/20 10:54:41;;;;;;;;;;;;;;;23.41;29.48;99841.25;5093711;28;19923;-46
2023/03/20 10:57:13;;;;;;;;;;;;;;;23.12;28.63;99840.44;5093656;28;19912;-47
2023/03/20 10:59:40;;;;;;;;;;;;;;;23.29;29.37;99838.13;5093198;28;20297;-48
2023/03/20 11:02:10;;;;;;;;;;;;;;;22.80;29.97;99834.41;5093222;28;19957;-47
2023/03/20 11:04:35;;;;;;;;;;;;;;;23.44;29.64;99829.03;5093208;28;19965;-47
2023/03/20 11:07:21;;;;;;;;;;;;;;;23.53;29.07;99826.47;5093293;28;19916;-42
2023/03/20 11:10:06;;;;;;;;;;;;;;;22.62;30.81;99819.63;5085124;28;19912;-41
2023/03/20 11:12:36;;;;;;;;;;;;;;;22.75;30.04;99810.03;5092586;28;20448;-42
2023/03/20 11:15:03;;;;;;;;;;;;;;;22.86;30.18;99808.03;5092958;28;19994;-42
2023/03/20 11:17:28;;;;;;;;;;;;;;;22.76;30.31;99806.22;5092521;28;20323;-41
2023/03/20 11:20:01;;;;;;;;;;;;;;;22.90;29.63;99798.25;5092612;28;19912;-41
2023/03/20 11:22:27;;;;;;;;;;;;;;;22.68;30.11;99790.56;5093159;28;19912;-40
2023/03/20 11:25:03;;;;;;;;;;;;;;;21.78;31.12;99786.13;5092405;28;19932;-42
2023/03/20 11:27:30;;;;;;;;;;;;;;;22.65;29.95;99780.28;5092568;28;19913;-41
2023/03/20 11:29:56;;;;;;;;;;;;;;;23.48;29.23;99778.47;5092498;28;20364;-41
2023/03/20 11:32:35;;;;;;;;;;;;;;;22.69;30.43;99767.75;5092247;28;19912;-41
2023/03/20 11:35:11;;;;;;;;;;;;;;;22.77;30.33;99771.75;5092225;28;19915;-42
2023/03/20 11:37:42;;;;;;;;;;;;;;;22.95;30.61;99765.66;5092591;28;19950;-41
2023/03/20 11:40:10;;;;;;;;;;;;;;;23.76;28.97;99755.06;5092036;28;19912;-41
2023/03/20 11:42:36;;;;;;;;;;;;;;;23.62;28.65;99749.50;5092203;28;19920;-40
2023/03/20 11:45:06;;;;;;;;;;;;;;;23.10;29.88;99744.94;5092199;28;19969;-41
2023/03/20 11:47:33;;;;;;;;;;;;;;;22.82;29.90;99742.69;5092156;28;20010;-41
2023/03/20 11:50:00;;;;;;;;;;;;;;;22.59;30.39;99744.25;5092151;28;20020;-41
2023/03/20 11:52:31;;;;;;;;;;;;;;;21.69;31.47;99748.00;5092302;28;19919;-41
2023/03/20 11:54:58;;;;;;;;;;;;;;;22.13;30.52;99733.69;5092161;28;19912;-42
2023/03/20 11:57:30;;;;;;;;;;;;;;;22.21;30.50;99738.50;5091844;28;20053;-41
2023/03/20 11:59:55;;;;;;;;;;;;;;;22.11;30.52;99718.81;5091705;28;19920;-41
2023/03/20 12:02:22;;;;;;;;;;;;;;;22.05;30.24;99724.25;5091758;28;19916;-42
2023/03/20 12:04:47;;;;;;;;;;;;;;;22.64;29.21;99719.81;5091612;28;19918;-42
2023/03/20 12:07:23;;;;;;;;;;;;;;;22.79;29.16;99709.91;5090888;28;20003;-41
2023/03/20 12:09:53;;;;;;;;;;;;;;;23.50;27.56;99710.28;5090382;28;19920;-42
2023/03/20 12:12:22;;;;;;;;;;;;;;;23.39;28.01;99709.59;5090766;28;19919;-41
2023/03/20 12:14:53;;;;;;;;;;;;;;;23.78;27.28;99708.59;5091364;28;19912;-41
2023/03/20 12:17:28;;;;;;;;;;;;;;;23.81;27.62;99700.66;5090895;28;20362;-41
2023/03/20 12:19:56;;;;;;;;;;;;;;;23.99;26.58;99706.44;5090000;28;20299;-41
2023/03/20 12:22:26;;;;;;;;;;;;;;;23.40;27.49;99698.44;5091516;28;19915;-41
2023/03/20 12:25:00;;;;;;;;;;;;;;;23.17;27.81;99701.97;5091307;28;20366;-40
2023/03/20 12:27:36;;;;;;;;;;;;;;;23.36;26.87;99705.56;5092347;28;19935;-43
2023/03/20 12:30:24;;;;;;;;;;;;;;;23.69;26.96;99694.84;5092006;28;19924;-43
2023/03/20 12:33:02;;;;;;;;;;;;;;;23.77;27.16;99691.47;5090402;28;19912;-41
2023/03/20 12:35:29;;;;;;;;;;;;;;;24.09;26.44;99689.97;5090043;28;19919;-41
2023/03/20 12:37:55;;;;;;;;;;;;;;;24.81;25.66;99680.66;5091139;28;20343;-42
2023/03/20 12:40:24;;;;;;;;;;;;;;;24.13;25.62;99682.81;5091721;28;19923;-41
2023/03/20 12:43:03;;;;;;;;;;;;;;;24.50;26.33;99680.34;5091463;28;20288;-40
2023/03/20 12:45:40;;;;;;;;;;;;;;;22.95;30.09;99675.31;5089649;28;20292;-42
2023/03/20 12:48:25;;;;;;;;;;;;;;;22.93;30.57;99672.09;5088921;28;20005;-41